createdAt,value
2016-08-05T00:00:08.722Z,0
2016-08-05T00:01:08.010Z,0
2016-08-05T00:02:07.995Z,0
2016-08-05T00:03:08.719Z,0
2016-08-05T00:04:07.995Z,0
2016-08-05T00:05:08.727Z,0
2016-08-05T00:06:07.296Z,0
2016-08-05T00:07:08.007Z,0
2016-08-05T00:08:08.011Z,0
2016-08-05T00:09:07.284Z,0
2016-08-05T00:11:08.015Z,0
2016-08-05T00:12:08.740Z,0
2016-08-05T00:13:08.016Z,0
2016-08-05T00:14:07.296Z,0
2016-08-05T00:15:08.012Z,0
2016-08-05T00:16:08.008Z,0
2016-08-05T00:17:08.016Z,0
2016-08-05T00:18:08.016Z,0
2016-08-05T00:19:08.007Z,0
2016-08-05T00:20:08.728Z,0
2016-08-05T00:21:08.012Z,0
2016-08-05T00:22:08.012Z,0
2016-08-05T00:23:08.016Z,0
2016-08-05T00:24:08.023Z,0
2016-08-05T00:25:08.032Z,0
2016-08-05T00:26:08.752Z,0
2016-08-05T00:27:08.735Z,0
2016-08-05T00:28:08.020Z,0
2016-08-05T00:29:08.748Z,0
2016-08-05T00:30:07.300Z,0
2016-08-05T00:31:08.015Z,0
2016-08-05T00:32:08.024Z,0
2016-08-05T00:33:08.020Z,0
2016-08-05T00:34:07.304Z,0
2016-08-05T00:35:07.308Z,0
2016-08-05T00:36:08.031Z,0
2016-08-05T00:37:08.033Z,0
2016-08-05T00:38:07.305Z,0
2016-08-05T00:39:08.760Z,0
2016-08-05T00:40:08.024Z,0
2016-08-05T00:41:08.031Z,0
2016-08-05T00:42:08.754Z,0
2016-08-05T00:43:07.312Z,0
2016-08-05T00:44:08.031Z,0
2016-08-05T00:45:07.316Z,0
2016-08-05T00:46:08.034Z,0
2016-08-05T00:47:08.033Z,0
2016-08-05T00:48:08.768Z,0
2016-08-05T00:49:08.035Z,0
2016-08-05T00:50:08.760Z,0
2016-08-05T00:51:08.756Z,0
2016-08-05T00:52:08.771Z,0
2016-08-05T00:53:08.052Z,0
2016-08-05T00:54:07.328Z,0
2016-08-05T00:55:08.037Z,0
2016-08-05T00:56:08.053Z,0
2016-08-05T00:57:08.757Z,0
2016-08-05T00:58:08.048Z,0
2016-08-05T00:59:08.040Z,0
2016-08-05T01:00:06.601Z,0
2016-08-05T01:01:07.329Z,0
2016-08-05T01:02:07.328Z,0
2016-08-05T01:03:07.321Z,0
2016-08-05T01:04:08.762Z,0
2016-08-05T01:05:08.784Z,0
2016-08-05T01:06:08.776Z,0
2016-08-05T01:07:08.768Z,0
2016-08-05T01:08:08.052Z,0
2016-08-05T01:09:08.061Z,0
2016-08-05T01:10:08.768Z,0
2016-08-05T01:11:08.773Z,0
2016-08-05T01:12:08.053Z,0
2016-08-05T01:13:08.071Z,0
2016-08-05T01:14:08.052Z,0
2016-08-05T01:15:08.061Z,0
2016-08-05T01:16:08.773Z,0
2016-08-05T01:17:08.772Z,0
2016-08-05T01:18:08.769Z,0
2016-08-05T01:19:08.784Z,0
2016-08-05T01:20:07.341Z,0
2016-08-05T01:21:08.780Z,0
2016-08-05T01:22:07.344Z,0
2016-08-05T01:23:07.337Z,0
2016-08-05T01:24:08.780Z,0
2016-08-05T01:25:08.053Z,0
2016-08-05T01:26:08.065Z,0
2016-08-05T01:27:08.061Z,0
2016-08-05T01:28:08.058Z,0
2016-08-05T01:29:08.068Z,0
2016-08-05T01:30:08.073Z,0
2016-08-05T01:31:07.332Z,0
2016-08-05T01:32:07.346Z,0
2016-08-05T01:33:07.345Z,0
2016-08-05T01:34:08.064Z,0
2016-08-05T01:35:08.788Z,0
2016-08-05T01:36:08.077Z,0
2016-08-05T01:37:08.073Z,0
2016-08-05T01:38:08.057Z,0
2016-08-05T01:39:08.073Z,0
2016-08-05T01:40:08.797Z,0
2016-08-05T01:41:06.629Z,0
2016-08-05T01:42:08.793Z,0
2016-08-05T01:43:08.785Z,0
2016-08-05T01:44:08.074Z,0
2016-08-05T01:45:08.813Z,0
2016-08-05T01:46:08.790Z,0
2016-08-05T01:47:08.078Z,0
2016-08-05T01:48:08.078Z,0
2016-08-05T01:49:07.365Z,0
2016-08-05T01:50:08.798Z,0
2016-08-05T01:51:08.787Z,0
2016-08-05T01:52:08.086Z,0
2016-08-05T01:53:08.798Z,0
2016-08-05T01:54:08.798Z,0
2016-08-05T01:55:06.639Z,0
2016-08-05T01:56:08.079Z,0
2016-08-05T01:57:08.086Z,0
2016-08-05T01:58:08.079Z,0
2016-08-05T01:59:08.810Z,0
2016-08-05T02:00:08.824Z,0
2016-08-05T02:01:08.810Z,0
2016-08-05T02:02:07.371Z,0
2016-08-05T02:03:08.087Z,0
2016-08-05T02:04:08.819Z,0
2016-08-05T02:05:08.803Z,0
2016-08-05T02:06:08.822Z,0
2016-08-05T02:07:08.811Z,0
2016-08-05T02:08:08.094Z,0
2016-08-05T02:09:08.815Z,0
2016-08-05T02:10:08.099Z,0
2016-08-05T02:11:08.816Z,0
2016-08-05T02:12:08.088Z,0
2016-08-05T02:13:08.075Z,0
2016-08-05T02:14:08.815Z,0
2016-08-05T02:15:08.111Z,0
2016-08-05T02:16:08.816Z,0
2016-08-05T02:17:08.083Z,0
2016-08-05T02:18:08.107Z,0
2016-08-05T02:19:08.107Z,0
2016-08-05T02:20:07.376Z,0
2016-08-05T02:21:08.091Z,0
2016-08-05T02:22:08.096Z,0
2016-08-05T02:23:08.807Z,0
2016-08-05T02:24:08.103Z,0
2016-08-05T02:25:08.099Z,0
2016-08-05T02:26:08.096Z,0
2016-08-05T02:27:07.379Z,0
2016-08-05T02:28:07.380Z,0
2016-08-05T02:29:07.387Z,0
2016-08-05T02:30:07.387Z,0
2016-08-05T02:31:08.104Z,0
2016-08-05T02:32:08.104Z,0
2016-08-05T02:33:08.111Z,0
2016-08-05T02:34:07.376Z,0
2016-08-05T02:35:08.820Z,0
2016-08-05T02:36:08.831Z,0
2016-08-05T02:37:08.112Z,0
2016-08-05T02:38:08.839Z,0
2016-08-05T02:39:08.107Z,0
2016-08-05T02:40:08.107Z,0
2016-08-05T02:41:08.113Z,0
2016-08-05T02:42:08.111Z,0
2016-08-05T02:43:08.832Z,0
2016-08-05T02:44:08.835Z,0
2016-08-05T02:45:08.105Z,0
2016-08-05T02:46:08.115Z,0
2016-08-05T02:47:08.132Z,0
2016-08-05T02:48:08.833Z,0
2016-08-05T02:49:08.112Z,0
2016-08-05T02:50:08.108Z,0
2016-08-05T02:51:08.108Z,0
2016-08-05T02:52:07.385Z,0
2016-08-05T02:53:06.676Z,0
2016-08-05T02:54:08.117Z,0
2016-08-05T02:55:08.835Z,0
2016-08-05T02:56:07.395Z,0
2016-08-05T02:57:08.107Z,0
2016-08-05T02:58:06.681Z,0
2016-08-05T02:59:08.109Z,0
2016-08-05T03:00:08.117Z,0
2016-08-05T03:01:08.848Z,0
2016-08-05T03:02:08.115Z,0
2016-08-05T03:03:07.401Z,0
2016-08-05T03:04:07.388Z,0
2016-08-05T03:05:07.396Z,0
2016-08-05T03:06:08.848Z,0
2016-08-05T03:07:07.398Z,0
2016-08-05T03:08:08.120Z,0
2016-08-05T03:09:08.117Z,0
2016-08-05T03:10:08.845Z,0
2016-08-05T03:11:07.418Z,0
2016-08-05T03:12:08.128Z,0
2016-08-05T03:13:08.852Z,0
2016-08-05T03:14:07.408Z,0
2016-08-05T03:15:07.401Z,0
2016-08-05T03:16:08.129Z,0
2016-08-05T03:17:08.858Z,0
2016-08-05T03:18:08.865Z,0
2016-08-05T03:19:08.129Z,0
2016-08-05T03:20:08.849Z,0
2016-08-05T03:21:07.409Z,0
2016-08-05T03:22:08.138Z,0
2016-08-05T03:23:08.137Z,0
2016-08-05T03:24:08.855Z,0
2016-08-05T03:25:06.697Z,0
2016-08-05T03:26:07.412Z,0
2016-08-05T03:27:08.137Z,0
2016-08-05T03:28:08.142Z,0
2016-08-05T03:29:08.141Z,0
2016-08-05T03:30:07.429Z,0
2016-08-05T03:31:07.417Z,0
2016-08-05T03:32:08.142Z,0
2016-08-05T03:33:08.130Z,0
2016-08-05T03:34:08.858Z,0
2016-08-05T03:35:08.862Z,0
2016-08-05T03:36:08.134Z,0
2016-08-05T03:37:08.142Z,0
2016-08-05T03:38:08.139Z,0
2016-08-05T03:39:08.866Z,0
2016-08-05T03:40:08.871Z,0
2016-08-05T03:41:08.871Z,0
2016-08-05T03:42:07.418Z,0
2016-08-05T03:43:07.414Z,0
2016-08-05T03:44:08.861Z,0
2016-08-05T03:45:08.871Z,0
2016-08-05T03:46:08.147Z,0
2016-08-05T03:47:08.139Z,0
2016-08-05T03:48:07.431Z,0
2016-08-05T03:49:08.859Z,0
2016-08-05T03:50:08.866Z,0
2016-08-05T03:51:08.876Z,0
2016-08-05T03:52:08.159Z,0
2016-08-05T03:53:08.163Z,0
2016-08-05T03:54:07.423Z,0
2016-08-05T03:55:08.143Z,0
2016-08-05T03:56:08.156Z,0
2016-08-05T03:57:08.875Z,0
2016-08-05T03:58:07.431Z,0
2016-08-05T03:59:08.150Z,0
2016-08-05T04:00:08.147Z,0
2016-08-05T04:01:08.875Z,0
2016-08-05T04:02:08.159Z,0
2016-08-05T04:03:08.891Z,0
2016-08-05T04:04:07.435Z,0
2016-08-05T04:05:08.155Z,0
2016-08-05T04:06:08.879Z,0
2016-08-05T04:07:08.159Z,0
2016-08-05T04:08:08.883Z,0
2016-08-05T04:09:07.438Z,0
2016-08-05T04:10:08.156Z,0
2016-08-05T04:11:08.156Z,0
2016-08-05T04:12:07.452Z,0
2016-08-05T04:13:08.883Z,0
2016-08-05T04:14:08.896Z,0
2016-08-05T04:15:08.887Z,0
2016-08-05T04:16:08.875Z,0
2016-08-05T04:17:08.178Z,0
2016-08-05T04:18:08.168Z,0
2016-08-05T04:19:08.160Z,0
2016-08-05T04:20:08.887Z,0
2016-08-05T04:21:08.176Z,0
2016-08-05T04:22:08.176Z,0
2016-08-05T04:23:07.456Z,0
2016-08-05T04:24:08.168Z,0
2016-08-05T04:25:08.899Z,0
2016-08-05T04:26:08.888Z,0
2016-08-05T04:27:07.444Z,0
2016-08-05T04:28:08.888Z,0
2016-08-05T04:29:08.908Z,0
2016-08-05T04:30:08.171Z,0
2016-08-05T04:31:08.904Z,0
2016-08-05T04:32:07.459Z,0
2016-08-05T04:33:08.896Z,0
2016-08-05T04:34:07.451Z,4
2016-08-05T04:35:08.180Z,4
2016-08-05T04:36:08.892Z,4
2016-08-05T04:37:08.179Z,0
2016-08-05T04:38:08.895Z,0
2016-08-05T04:39:08.902Z,0
2016-08-05T04:40:08.911Z,0
2016-08-05T04:41:08.175Z,4
2016-08-05T04:42:08.183Z,4
2016-08-05T04:43:06.739Z,4
2016-08-05T04:44:08.899Z,4
2016-08-05T04:45:08.895Z,4
2016-08-05T04:46:08.176Z,4
2016-08-05T04:47:08.184Z,4
2016-08-05T04:48:07.455Z,4
2016-08-05T04:49:08.180Z,4
2016-08-05T04:50:08.184Z,4
2016-08-05T04:51:08.903Z,4
2016-08-05T04:52:08.179Z,4
2016-08-05T04:53:07.459Z,4
2016-08-05T04:54:08.915Z,4
2016-08-05T04:55:08.196Z,4
2016-08-05T04:56:08.911Z,8
2016-08-05T04:57:08.187Z,8
2016-08-05T04:58:08.895Z,8
2016-08-05T04:59:08.900Z,8
2016-08-05T05:00:08.189Z,4
2016-08-05T05:01:08.184Z,4
2016-08-05T05:02:08.195Z,4
2016-08-05T05:03:07.459Z,4
2016-08-05T05:04:08.903Z,4
2016-08-05T05:05:08.908Z,4
2016-08-05T05:06:08.184Z,4
2016-08-05T05:07:08.188Z,4
2016-08-05T05:08:08.183Z,4
2016-08-05T05:09:08.184Z,4
2016-08-05T05:10:08.915Z,4
2016-08-05T05:11:08.916Z,0
2016-08-05T05:12:07.468Z,4
2016-08-05T05:13:08.444Z,4
2016-08-05T05:14:08.908Z,4
2016-08-05T05:15:08.183Z,4
2016-08-05T05:16:08.188Z,4
2016-08-05T05:17:08.924Z,4
2016-08-05T05:18:08.192Z,4
2016-08-05T05:19:08.189Z,4
2016-08-05T05:20:08.184Z,4
2016-08-05T05:21:08.924Z,4
2016-08-05T05:22:08.911Z,4
2016-08-05T05:23:08.188Z,4
2016-08-05T05:24:08.928Z,4
2016-08-05T05:25:08.192Z,4
2016-08-05T05:26:07.280Z,84
2016-08-05T05:27:07.476Z,304
2016-08-05T05:28:08.196Z,292
2016-08-05T05:29:08.920Z,296
2016-08-05T05:30:08.908Z,296
2016-08-05T05:31:08.920Z,300
2016-08-05T05:32:08.208Z,312
2016-08-05T05:33:07.480Z,328
2016-08-05T05:34:07.489Z,352
2016-08-05T05:35:07.481Z,384
2016-08-05T05:36:07.485Z,412
2016-08-05T05:37:08.200Z,436
2016-08-05T05:38:08.925Z,452
2016-08-05T05:39:07.485Z,452
2016-08-05T05:40:08.917Z,444
2016-08-05T05:41:07.568Z,436
2016-08-05T05:42:07.790Z,428
2016-08-05T05:43:07.487Z,428
2016-08-05T05:44:08.918Z,424
2016-08-05T05:45:08.201Z,416
2016-08-05T05:46:08.210Z,424
2016-08-05T05:47:08.206Z,456
2016-08-05T05:48:08.927Z,480
2016-08-05T05:49:08.925Z,496
2016-08-05T05:50:08.926Z,508
2016-08-05T05:51:07.486Z,512
2016-08-05T05:52:08.210Z,512
2016-08-05T05:53:08.207Z,504
2016-08-05T05:54:08.214Z,508
2016-08-05T05:55:07.487Z,492
2016-08-05T05:57:08.211Z,460
2016-08-05T05:58:08.942Z,488
2016-08-05T05:59:08.211Z,516
2016-08-05T06:00:08.203Z,524
2016-08-05T06:01:08.226Z,508
2016-08-05T06:02:08.935Z,480
2016-08-05T06:03:08.942Z,468
2016-08-05T06:04:08.222Z,468
2016-08-05T06:05:08.207Z,476
2016-08-05T06:06:08.215Z,488
2016-08-05T06:07:08.959Z,492
2016-08-05T06:08:08.224Z,488
2016-08-05T06:09:08.219Z,488
2016-08-05T06:10:08.947Z,492
2016-08-05T06:12:08.221Z,524
2016-08-05T06:13:08.947Z,544
2016-08-05T06:14:08.935Z,556
2016-08-05T06:15:08.224Z,572
2016-08-05T06:16:08.955Z,596
2016-08-05T06:17:07.508Z,620
2016-08-05T06:18:07.507Z,628
2016-08-05T06:19:08.947Z,624
2016-08-05T06:20:07.504Z,612
2016-08-05T06:21:08.220Z,596
2016-08-05T06:22:08.956Z,572
2016-08-05T06:23:08.950Z,564
2016-08-05T06:24:08.961Z,548
2016-08-05T06:25:08.228Z,480
2016-08-05T06:26:07.507Z,468
2016-08-05T06:27:08.944Z,448
2016-08-05T06:28:08.232Z,416
2016-08-05T06:29:08.235Z,324
2016-08-05T06:30:08.960Z,352
2016-08-05T06:31:08.229Z,496
2016-08-05T06:32:07.512Z,584
2016-08-05T06:33:08.232Z,684
2016-08-05T06:34:09.303Z,800
2016-08-05T06:35:08.224Z,860
2016-08-05T06:36:08.241Z,780
2016-08-05T06:37:08.961Z,864
2016-08-05T06:38:08.236Z,784
2016-08-05T06:39:08.968Z,660
2016-08-05T06:40:08.966Z,712
2016-08-05T06:41:07.516Z,664
2016-08-05T06:42:08.248Z,692
2016-08-05T06:43:08.240Z,716
2016-08-05T06:44:08.965Z,796
2016-08-05T06:45:08.956Z,904
2016-08-05T06:46:08.957Z,908
2016-08-05T06:47:07.525Z,808
2016-08-05T06:48:08.969Z,528
2016-08-05T06:49:08.237Z,488
2016-08-05T06:50:07.526Z,392
2016-08-05T06:51:08.245Z,316
2016-08-05T06:52:08.248Z,364
2016-08-05T06:53:08.968Z,372
2016-08-05T06:54:08.249Z,296
2016-08-05T06:55:08.258Z,252
2016-08-05T06:56:08.248Z,228
2016-08-05T06:57:08.273Z,268
2016-08-05T06:58:08.252Z,272
2016-08-05T06:59:08.265Z,312
2016-08-05T07:00:07.537Z,288
2016-08-05T07:01:08.265Z,288
2016-08-05T07:02:08.977Z,272
2016-08-05T07:03:07.533Z,256
2016-08-05T07:04:08.257Z,268
2016-08-05T07:05:08.258Z,376
2016-08-05T07:06:08.986Z,528
2016-08-05T07:07:08.970Z,492
2016-08-05T07:08:08.260Z,588
2016-08-05T07:09:08.282Z,692
2016-08-05T07:10:07.538Z,652
2016-08-05T07:11:08.272Z,684
2016-08-05T07:12:08.981Z,612
2016-08-05T07:13:08.274Z,680
2016-08-05T07:14:08.977Z,712
2016-08-05T07:15:08.252Z,668
2016-08-05T07:16:07.538Z,720
2016-08-05T07:17:08.261Z,748
2016-08-05T07:18:08.262Z,740
2016-08-05T07:19:08.969Z,760
2016-08-05T07:20:08.989Z,800
2016-08-05T07:21:08.270Z,792
2016-08-05T07:22:07.542Z,812
2016-08-05T07:23:08.258Z,872
2016-08-05T07:24:07.542Z,896
2016-08-05T07:25:07.546Z,952
2016-08-05T07:26:08.993Z,968
2016-08-05T07:27:08.977Z,972
2016-08-05T07:28:09.009Z,996
2016-08-05T07:29:08.986Z,1072
2016-08-05T07:30:08.978Z,1172
2016-08-05T07:31:09.008Z,1284
2016-08-05T07:32:07.554Z,1388
2016-08-05T07:33:08.994Z,1492
2016-08-05T07:34:08.997Z,1556
2016-08-05T07:35:07.563Z,1552
2016-08-05T07:36:08.986Z,1444
2016-08-05T07:37:08.261Z,1464
2016-08-05T07:38:08.274Z,1504
2016-08-05T07:39:08.278Z,1616
2016-08-05T07:40:08.986Z,1832
2016-08-05T07:41:08.986Z,2048
2016-08-05T07:42:08.271Z,2152
2016-08-05T07:43:07.550Z,2164
2016-08-05T07:44:08.274Z,2104
2016-08-05T07:45:07.554Z,2048
2016-08-05T07:46:07.551Z,1996
2016-08-05T07:47:09.008Z,1908
2016-08-05T07:48:08.275Z,1856
2016-08-05T07:49:08.279Z,1712
2016-08-05T07:50:08.271Z,1584
2016-08-05T07:51:08.998Z,1576
2016-08-05T07:52:08.994Z,1684
2016-08-05T07:53:07.547Z,1752
2016-08-05T07:54:08.276Z,1796
2016-08-05T07:55:08.279Z,1876
2016-08-05T07:56:08.274Z,1976
2016-08-05T07:57:08.995Z,2020
2016-08-05T07:58:08.276Z,2024
2016-08-05T07:59:08.282Z,2028
2016-08-05T08:00:09.003Z,1984
2016-08-05T08:01:06.840Z,1904
2016-08-05T08:02:09.003Z,1864
2016-08-05T08:03:09.004Z,1840
2016-08-05T08:04:09.003Z,1832
2016-08-05T08:05:09.010Z,1852
2016-08-05T08:06:08.288Z,1860
2016-08-05T08:07:07.563Z,1880
2016-08-05T08:08:08.271Z,1908
2016-08-05T08:09:08.287Z,1932
2016-08-05T08:10:07.567Z,1944
2016-08-05T08:11:08.276Z,1952
2016-08-05T08:12:09.012Z,1976
2016-08-05T08:13:07.578Z,2000
2016-08-05T08:14:08.995Z,2060
2016-08-05T08:15:08.279Z,2124
2016-08-05T08:16:08.292Z,2180
2016-08-05T08:17:08.289Z,2212
2016-08-05T08:18:08.283Z,2228
2016-08-05T08:19:09.018Z,2252
2016-08-05T08:20:09.007Z,2264
2016-08-05T08:21:09.004Z,2284
2016-08-05T08:22:08.288Z,2300
2016-08-05T08:23:08.287Z,2316
2016-08-05T08:24:09.012Z,2332
2016-08-05T08:25:08.295Z,2348
2016-08-05T08:26:08.300Z,2364
2016-08-05T08:27:07.576Z,2364
2016-08-05T08:28:07.576Z,2364
2016-08-05T08:29:07.572Z,2364
2016-08-05T08:30:09.017Z,2352
2016-08-05T08:31:09.012Z,2324
2016-08-05T08:32:09.007Z,2288
2016-08-05T08:33:09.024Z,2252
2016-08-05T08:34:09.016Z,2232
2016-08-05T08:35:08.296Z,2220
2016-08-05T08:36:07.585Z,2116
2016-08-05T08:37:09.020Z,2064
2016-08-05T08:38:08.308Z,2004
2016-08-05T08:39:07.576Z,2028
2016-08-05T08:40:09.020Z,2040
2016-08-05T08:41:08.304Z,2040
2016-08-05T08:42:08.323Z,2000
2016-08-05T08:43:09.016Z,1848
2016-08-05T08:44:09.029Z,1700
2016-08-05T08:45:09.029Z,1632
2016-08-05T08:46:08.303Z,1640
2016-08-05T08:47:08.312Z,1784
2016-08-05T08:48:09.024Z,2068
2016-08-05T08:49:09.036Z,2304
2016-08-05T08:50:08.308Z,2316
2016-08-05T08:51:09.040Z,2332
2016-08-05T08:52:09.028Z,2252
2016-08-05T08:53:09.036Z,2120
2016-08-05T08:54:08.308Z,2012
2016-08-05T08:55:08.309Z,1904
2016-08-05T08:56:09.036Z,1792
2016-08-05T08:57:08.309Z,1776
2016-08-05T08:58:08.309Z,1748
2016-08-05T08:59:08.321Z,1628
2016-08-05T09:00:08.321Z,1544
2016-08-05T09:01:07.621Z,1528
2016-08-05T09:02:08.313Z,1580
2016-08-05T09:03:09.044Z,1772
2016-08-05T09:04:08.321Z,1920
2016-08-05T09:05:08.317Z,1968
2016-08-05T09:06:09.041Z,2064
2016-08-05T09:07:06.878Z,2224
2016-08-05T09:08:09.051Z,2264
2016-08-05T09:09:08.326Z,2192
2016-08-05T09:10:08.327Z,2180
2016-08-05T09:11:09.050Z,2312
2016-08-05T09:12:09.042Z,2492
2016-08-05T09:13:08.326Z,2604
2016-08-05T09:14:07.609Z,2648
2016-08-05T09:15:08.333Z,2736
2016-08-05T09:16:08.330Z,2784
2016-08-05T09:17:09.069Z,2756
2016-08-05T09:18:07.605Z,2668
2016-08-05T09:19:08.330Z,2644
2016-08-05T09:20:07.625Z,2704
2016-08-05T09:21:09.074Z,2712
2016-08-05T09:22:07.609Z,2744
2016-08-05T09:23:09.057Z,2808
2016-08-05T09:24:07.614Z,2836
2016-08-05T09:25:07.621Z,2880
2016-08-05T09:26:09.062Z,2912
2016-08-05T09:27:08.338Z,2944
2016-08-05T09:28:09.046Z,2952
2016-08-05T09:29:08.346Z,2904
2016-08-05T09:30:08.342Z,2824
2016-08-05T09:31:09.061Z,2764
2016-08-05T09:32:07.617Z,2696
2016-08-05T09:33:07.622Z,2632
2016-08-05T09:34:09.070Z,2580
2016-08-05T09:35:08.347Z,2560
2016-08-05T09:36:09.059Z,2556
2016-08-05T09:37:09.062Z,2564
2016-08-05T09:38:09.079Z,2580
2016-08-05T09:39:07.634Z,2600
2016-08-05T09:40:07.625Z,2636
2016-08-05T09:41:08.361Z,2680
2016-08-05T09:42:08.358Z,2716
2016-08-05T09:43:07.623Z,2728
2016-08-05T09:44:08.349Z,2744
2016-08-05T09:45:07.637Z,2748
2016-08-05T09:46:07.631Z,2772
2016-08-05T09:47:08.350Z,2824
2016-08-05T09:48:09.070Z,2904
2016-08-05T09:49:09.078Z,2996
2016-08-05T09:50:07.638Z,3068
2016-08-05T09:51:08.361Z,3120
2016-08-05T09:52:09.078Z,3160
2016-08-05T09:53:08.361Z,3200
2016-08-05T09:54:08.366Z,3268
2016-08-05T09:55:09.085Z,3364
2016-08-05T09:56:09.082Z,3460
2016-08-05T09:57:08.362Z,3600
2016-08-05T09:58:08.377Z,3768
2016-08-05T09:59:09.086Z,3964
2016-08-05T10:00:09.122Z,4160
2016-08-05T10:01:08.366Z,4328
2016-08-05T10:02:07.646Z,4448
2016-08-05T10:03:08.373Z,4496
2016-08-05T10:04:09.095Z,4460
2016-08-05T10:05:07.655Z,4412
2016-08-05T10:06:09.094Z,4412
2016-08-05T10:07:09.094Z,4488
2016-08-05T10:08:08.386Z,4552
2016-08-05T10:09:08.387Z,4536
2016-08-05T10:10:09.105Z,4508
2016-08-05T10:11:08.382Z,4508
2016-08-05T10:12:08.378Z,4500
2016-08-05T10:13:08.387Z,4624
2016-08-05T10:14:08.390Z,4736
2016-08-05T10:15:08.378Z,4760
2016-08-05T10:16:09.106Z,4600
2016-08-05T10:17:07.670Z,4436
2016-08-05T10:18:09.111Z,4248
2016-08-05T10:19:07.823Z,4096
2016-08-05T10:20:09.110Z,3936
2016-08-05T10:21:07.671Z,3504
2016-08-05T10:22:09.115Z,3268
2016-08-05T10:23:07.674Z,3032
2016-08-05T10:24:09.114Z,2716
2016-08-05T10:25:07.680Z,2748
2016-08-05T10:26:09.114Z,2860
2016-08-05T10:27:08.395Z,2780
2016-08-05T10:28:08.419Z,2648
2016-08-05T10:29:08.402Z,2912
2016-08-05T10:30:09.118Z,3188
2016-08-05T10:31:09.126Z,3284
2016-08-05T10:32:08.415Z,3404
2016-08-05T10:33:08.407Z,3324
2016-08-05T10:34:08.415Z,3072
2016-08-05T10:35:09.126Z,3200
2016-08-05T10:36:08.415Z,3480
2016-08-05T10:37:07.702Z,3312
2016-08-05T10:38:08.415Z,3112
2016-08-05T10:39:08.410Z,3092
2016-08-05T10:40:06.986Z,3292
2016-08-05T10:41:09.147Z,3448
2016-08-05T10:42:06.972Z,3408
2016-08-05T10:43:08.414Z,3160
2016-08-05T10:44:09.140Z,2812
2016-08-05T10:45:07.711Z,2280
2016-08-05T10:46:08.423Z,1860
2016-08-05T10:47:07.756Z,1740
2016-08-05T10:48:09.151Z,1764
2016-08-05T10:49:09.144Z,2012
2016-08-05T10:50:08.444Z,2208
2016-08-05T10:51:08.423Z,2192
2016-08-05T10:52:07.716Z,2196
2016-08-05T10:53:09.156Z,2444
2016-08-05T10:54:09.167Z,2728
2016-08-05T10:55:07.712Z,2812
2016-08-05T10:56:08.447Z,2820
2016-08-05T10:57:07.720Z,2852
2016-08-05T10:58:09.156Z,2936
2016-08-05T10:59:07.726Z,3144
2016-08-05T11:00:08.440Z,3404
2016-08-05T11:01:07.728Z,3780
2016-08-05T11:02:08.445Z,4128
2016-08-05T11:03:08.448Z,4300
2016-08-05T11:04:09.168Z,4348
2016-08-05T11:05:07.724Z,4292
2016-08-05T11:06:09.176Z,4108
2016-08-05T11:07:08.457Z,3884
2016-08-05T11:08:09.176Z,3720
2016-08-05T11:09:08.457Z,3672
2016-08-05T11:10:09.176Z,3756
2016-08-05T11:11:08.453Z,3892
2016-08-05T11:12:08.457Z,3960
2016-08-05T11:13:09.196Z,4064
2016-08-05T11:14:09.176Z,4176
2016-08-05T11:15:08.488Z,4232
2016-08-05T11:16:08.477Z,4324
2016-08-05T11:17:08.460Z,4456
2016-08-05T11:18:09.194Z,4640
2016-08-05T11:19:09.189Z,4860
2016-08-05T11:20:09.189Z,5128
2016-08-05T11:21:08.456Z,5368
2016-08-05T11:22:07.081Z,5608
2016-08-05T11:23:08.477Z,5820
2016-08-05T11:24:08.477Z,6108
2016-08-05T11:25:08.469Z,6424
2016-08-05T11:26:09.197Z,6684
2016-08-05T11:27:09.205Z,6932
2016-08-05T11:28:09.201Z,7132
2016-08-05T11:29:08.481Z,7320
2016-08-05T11:30:09.206Z,7448
2016-08-05T11:31:08.477Z,7484
2016-08-05T11:32:09.201Z,7556
2016-08-05T11:33:09.209Z,7352
2016-08-05T11:34:07.753Z,6868
2016-08-05T11:35:09.214Z,6416
2016-08-05T11:36:09.221Z,6352
2016-08-05T11:37:07.050Z,6408
2016-08-05T11:38:08.489Z,6412
2016-08-05T11:39:09.216Z,5804
2016-08-05T11:40:09.222Z,5044
2016-08-05T11:41:08.501Z,4368
2016-08-05T11:42:07.580Z,4112
2016-08-05T11:43:09.222Z,4000
2016-08-05T11:44:07.064Z,3552
2016-08-05T11:45:09.245Z,2900
2016-08-05T11:46:09.217Z,2484
2016-08-05T11:47:07.782Z,2176
2016-08-05T11:48:09.221Z,2052
2016-08-05T11:49:09.241Z,2096
2016-08-05T11:50:08.514Z,2096
2016-08-05T11:51:09.253Z,2104
2016-08-05T11:52:08.569Z,2152
2016-08-05T11:53:07.798Z,2228
2016-08-05T11:54:09.254Z,2344
2016-08-05T11:55:09.233Z,2564
2016-08-05T11:56:09.242Z,2980
2016-08-05T11:58:07.079Z,3692
2016-08-05T11:59:08.522Z,3884
2016-08-05T12:00:09.250Z,3980
2016-08-05T12:01:08.531Z,4060
2016-08-05T12:02:07.811Z,4140
2016-08-05T12:03:08.534Z,4204
2016-08-05T12:04:09.259Z,4256
2016-08-05T12:05:08.534Z,4300
2016-08-05T12:06:07.806Z,4308
2016-08-05T12:07:08.534Z,4300
2016-08-05T12:08:07.814Z,4268
2016-08-05T12:09:09.254Z,4228
2016-08-05T12:10:09.258Z,4204
2016-08-05T12:11:07.822Z,4192
2016-08-05T12:13:09.254Z,4228
2016-08-05T12:14:08.539Z,4268
2016-08-05T12:15:09.258Z,4292
2016-08-05T12:16:07.810Z,4324
2016-08-05T12:17:08.542Z,4344
2016-08-05T12:18:09.255Z,4356
2016-08-05T12:19:09.258Z,4348
2016-08-05T12:20:08.556Z,4360
2016-08-05T12:21:07.819Z,4380
2016-08-05T12:22:08.556Z,4432
2016-08-05T12:23:09.283Z,4504
2016-08-05T12:24:08.551Z,4580
2016-08-05T12:25:09.290Z,4632
2016-08-05T12:26:09.287Z,4596
2016-08-05T12:27:08.550Z,4436
2016-08-05T12:28:08.571Z,4136
2016-08-05T12:29:07.844Z,3796
2016-08-05T12:30:07.844Z,3296
2016-08-05T12:31:07.115Z,2836
2016-08-05T12:32:08.567Z,2552
2016-08-05T12:33:08.567Z,2520
2016-08-05T12:34:07.844Z,2524
2016-08-05T12:35:07.853Z,2624
2016-08-05T12:36:08.567Z,2920
2016-08-05T12:37:07.848Z,3064
2016-08-05T12:38:09.291Z,3092
2016-08-05T12:39:09.292Z,3204
2016-08-05T12:40:08.576Z,3312
2016-08-05T12:41:08.576Z,3312
2016-08-05T12:42:08.601Z,3312
2016-08-05T12:43:09.308Z,3452
2016-08-05T12:44:09.287Z,3688
2016-08-05T12:45:08.580Z,3948
2016-08-05T12:46:09.300Z,4152
2016-08-05T12:47:09.308Z,4276
2016-08-05T12:48:07.863Z,4368
2016-08-05T12:49:08.584Z,4472
2016-08-05T12:50:07.868Z,4616
2016-08-05T12:51:08.587Z,4764
2016-08-05T12:52:09.308Z,4732
2016-08-05T12:53:09.328Z,4892
2016-08-05T12:54:09.311Z,5256
2016-08-05T12:55:09.316Z,5568
2016-08-05T12:56:08.587Z,5704
2016-08-05T12:57:09.317Z,5228
2016-08-05T12:58:09.333Z,5076
2016-08-05T12:59:09.328Z,5176
2016-08-05T13:00:08.613Z,5376
2016-08-05T13:01:08.608Z,5520
2016-08-05T13:02:07.885Z,5204
2016-08-05T13:03:09.326Z,4840
2016-08-05T13:04:09.485Z,4592
2016-08-05T13:05:08.616Z,4336
2016-08-05T13:06:08.604Z,4020
2016-08-05T13:07:07.900Z,3848
2016-08-05T13:08:07.916Z,3856
2016-08-05T13:09:09.341Z,3904
2016-08-05T13:10:09.347Z,3996
2016-08-05T13:11:09.344Z,4100
2016-08-05T13:12:09.337Z,4144
2016-08-05T13:13:08.625Z,4204
2016-08-05T13:14:08.629Z,4212
2016-08-05T13:15:08.632Z,4172
2016-08-05T13:16:09.344Z,4184
2016-08-05T13:17:08.628Z,4264
2016-08-05T13:18:07.917Z,4344
2016-08-05T13:19:08.636Z,4452
2016-08-05T13:20:08.648Z,4596
2016-08-05T13:21:08.640Z,4716
2016-08-05T13:22:08.637Z,4736
2016-08-05T13:23:09.357Z,4744
2016-08-05T13:24:07.913Z,4864
2016-08-05T13:25:07.917Z,5120
2016-08-05T13:26:08.644Z,5508
2016-08-05T13:27:08.654Z,5920
2016-08-05T13:28:07.925Z,6260
2016-08-05T13:29:08.641Z,6584
2016-08-05T13:30:07.934Z,6876
2016-08-05T13:31:07.225Z,7120
2016-08-05T13:32:09.373Z,7324
2016-08-05T13:33:07.213Z,7472
2016-08-05T13:34:09.381Z,7592
2016-08-05T13:35:08.661Z,7676
2016-08-05T13:36:07.937Z,7736
2016-08-05T13:37:07.941Z,7796
2016-08-05T13:38:07.945Z,7832
2016-08-05T13:39:08.681Z,7852
2016-08-05T13:40:09.393Z,7840
2016-08-05T13:41:07.961Z,7812
2016-08-05T13:42:09.389Z,7776
2016-08-05T13:43:08.673Z,7752
2016-08-05T13:44:08.672Z,7732
2016-08-05T13:45:09.418Z,7700
2016-08-05T13:46:07.969Z,7660
2016-08-05T13:47:09.413Z,7576
2016-08-05T13:48:08.677Z,7472
2016-08-05T13:49:07.966Z,7372
2016-08-05T13:50:09.414Z,7264
2016-08-05T13:51:09.417Z,7176
2016-08-05T13:52:08.709Z,7096
2016-08-05T13:53:08.701Z,6956
2016-08-05T13:54:09.421Z,6764
2016-08-05T13:55:08.697Z,6612
2016-08-05T13:56:09.434Z,6456
2016-08-05T13:57:08.710Z,6224
2016-08-05T13:58:08.714Z,5892
2016-08-05T13:59:08.705Z,5720
2016-08-05T14:00:07.998Z,5672